INFORMACIÓN METAR y TAF
METAR FOR ENGM
ADDS - METARS form results

(0557 UTC 20 January 2020)
Data provider http://aviationweather.gov/metar/data/
 
METAR text: ENGM 200550Z 18011KT CAVOK 03/M02 Q1028 NOSIG
Conditions at: ENGM (OSLO/GARDERMOEN , NO) observed 0550 UTC 20 January 2020
Temperature: 3.0°C (37°F)
Dewpoint: -2.0°C (28°F) [RH = 70%]
Pressure (altimeter): 30.35 inches Hg (1028.0 mb)
Winds: from the S (180 degrees) at 13 MPH (11 knots; 5.7 m/s)
Visibility: 6 or more miles (10+ km)
Ceiling: ceiling and visibility are OK
Clouds: unknown
Weather: no significant weather observed at this time

METAR text: ENGM 200520Z 18007KT CAVOK 02/M02 Q1028 NOSIG
Conditions at: ENGM (OSLO/GARDERMOEN , NO) observed 0520 UTC 20 January 2020
Temperature: 2.0°C (36°F)
Dewpoint: -2.0°C (28°F) [RH = 75%]
Pressure (altimeter): 30.35 inches Hg (1028.0 mb)
Winds: from the S (180 degrees) at 8 MPH (7 knots; 3.6 m/s)
Visibility: 6 or more miles (10+ km)
Ceiling: ceiling and visibility are OK
Clouds: unknown
Weather: no significant weather observed at this time

Forecast for: ENGM (OSLO/GARDERMOEN , NO)
Text: TAF ENGM 2006/2106 19008KT 9999 FEW040 BKN060
Forecast period: 0600 UTC 20 January 2020 to 0600 UTC 21 January 2020
Forecast type: FROM: standard forecast or significant change
Winds: from the S (190 degrees) at 9 MPH (8 knots; 4.1 m/s)
Visibility: 6 or more miles 10+ km)
Ceiling: 6000 feet AGL
Clouds: few clouds at 4000 feet AGL
broken clouds at 6000 feet AGL
Weather: no significant weather forecast for this period

MAPA DE AEROPUERTO

INFORMACIÓN DE PISTA
Pista 01L Longitud 11811 ft Ancho 148 ft
Elevación 656 ft Umbral desplazado 0 ft Rumbo de pista 16
Pista 19R Longitud 11811 ft Ancho 148 ft
Elevación 675 ft Umbral desplazado 0 ft Rumbo de pista 196
Pista 01R Longitud 9678 ft Ancho 148 ft
Elevación 670 ft Umbral desplazado 0 ft Rumbo de pista 16
Pista 19L Longitud 9678 ft Ancho 148 ft
Elevación 681 ft Umbral desplazado 0 ft Rumbo de pista 196

FRECUANCIAS DEL AEROPUERTO
Tipo APP Nombre APP Frecuencia 119.975 MHZ
Tipo ATIS Nombre ATIS Frecuencia 126.125 MHZ
Tipo CLD Nombre CLNC DEL Frecuencia 121.6 MHZ
Tipo DIR Nombre DIRECTOR Frecuencia 131.35 MHZ
Tipo GND Nombre GND Frecuencia 121.925 MHZ
Tipo MISC Nombre DE ICING Frecuencia 131.975 MHZ
Tipo OPS Nombre WINGOPS Frecuencia 29.38 MHZ
Tipo PMSV Nombre PMSV METRO Frecuencia 134.175 MHZ
Tipo TWR Nombre TWR Frecuencia 118.3 MHZ

RADIO AYUDAS DEL AEROPUERTO
Tipo NDB Nombre Bergerud Frecuencia 316 KHZ
Tipo VOR-DME Nombre Gardermoen Frecuencia 115950 KHZ
Tipo NDB Nombre Oppaker Frecuencia 334 KHZ
Tipo NDB Nombre Solberg Frecuencia 414 KHZ
Tipo NDB Nombre Soknen Frecuencia 387 KHZ